METAR Data
IDs: Format: Raw Decoded Include TAF

Data at: 0706 UTC 28 Sep 2022

KSCH 280148Z 00000KT 15SM BKN060 BKN085 BKN110 12/12 A2991 RMK LAST